Paraburdoo, Western Australia

1:03 PM WST on July 30, 2014 (GMT +0800)
Paraburdoo (YPBO) Elev 1404 ft | 23.17 °S, 117.75 °E | Change Station

Current weather conditions updated 1 hour ago

Clear
Clear
84 °F
Feels Like 84 °F
N
13
Wind Variable Wind from North

Today is forecast to be nearly the same temperature as yesterday.

Today
High -- | Low -- °F
--% Chance of Precip.
Yesterday
High -- | Low -- °F
Precip. -- in
6:44 AM 5:46 PM
Waxing Crescent, 9% visible
Pressure 30.12 in
Visibility 6.2 miles
Clouds
Dew Point 34 °F
Humidity 16%
Rainfall 0.00 in
Snow Depth Not available.
UV Not available.
Pollen Not available.
Air Quality Not available.
Flu Activity Not available.
METAR YPBO 300400Z AUTO 35011KT 9999 // NCD 29/01 Q1020

More Conditions Fewer Conditions

Pressure 30.12 in
Visibility 6.2 miles
Clouds
Dew Point 34 °F
Humidity 16%
Rainfall 0.00 in
Snow Depth Not available.
UV Not available.
Pollen Not available.
Air Quality Not available.
Flu Activity Not available.
METAR YPBO 300400Z AUTO 35011KT 9999 // NCD 29/01 Q1020

More Conditions Fewer Conditions

10-Day Weather Forecast

Almanac

Astronomy

Jul. 30, 2014 Rise Set
Actual Time 6:44 AM WST 5:46 PM WST
Civil Twilight 6:20 AM WST 6:10 PM WST
Nautical Twilight 5:53 AM WST 6:37 PM WST
Astronomical Twilight 5:26 AM WST 7:04 PM WST
Moon 8:29 AM WST 8:36 PM WST
Length of Visible Light 11h 49m
Length of Day
11h 01m
Tomorrow will be 0m 55s longer.
Waxing Crescent, 9% of the Moon is Illuminated
Today
Waxing Crescent
Aug 3
First Quarter
Aug 10
Full
Aug 17
Last Quarter
Aug 25
New

Yesterday's Extremes

Country Highs Country Lows

Community

WunderPhotos

Upload Photos

1,739,004 photos uploaded!

WunderBlogs® & News

By Dr. Jeff Masters
Director of Meteorology, Weather Underground
By Kari Strenfel
Meteorologist, Weather Underground
By Christopher C. Burt
Weather Historian, Weather Underground
July 29, 2014
July 29, 2014
July 29, 2014

Nearby

Snow Depth

Not available.

Earthquake Activity

City Distance Mag. Time & Date
No recent earthquake activity has been reported nearby.
Minimum magnitude displayed is 2.5.

Coastal Water Temperatures

Place Temperature
No Stations Reporting

Nearby Weather Stations

There are no personal weather stations in this area.